Aeroporto :
LOGIN :

Iscrizione | Disclaimer

   EN    FR    IT 

 










Sommario :    VFR   VFR Marginale   IFR   IFR Intensivo   IFR Molto Intensivo
Visibilità : 
Base nubi : 
>= 8 km
>= 3000ft
5 / 8 km
1000 / 3000 ft
1500m / 5 km
500 / 1000 ft
800 / 1500m
200 / 500 ft
< 800m
< 200 ft
Simboli :   Temporali  Nebbia  Neve Forte  Precipitazioni Forti  Vento > 20 kt
SIGMETs :   Varie  Temporali  Ghiacco  Turbolenza  Onda orograficha  Ceneri Vulcaniche







- Altitudine del aeroporto : 1197 ft
- Codice IATA : SPM


ETAD - Spangdahlem Ab

ULTIMO METAR :
  • 101711Z AUTO 32008KT 9999 -RA BKN017 OVC023 04/01 A3019 RMK AO2 CIG 017V022 BKN V SCT SLP229 CHINO RWY23 $

METARs OBSOLETI :
  • 101656Z AUTO 31008KT 9999 -RA FEW013 BKN024 OVC033 04/01 A3018 RMK AO2 RAB44 CIG 024V034 SLP226 P0000 T00400009 CHINO RWY23 $
  • 101644Z AUTO 29008KT 9999 -RA SCT025 BKN033 04/00 A3018 RMK AO2 RAB44 SLP226 CHINO RWY23 $
  • 101556Z AUTO 28011G19KT 9999 CLR 05/00 A3017 RMK AO2 SLP221 T00451003 CHINO RWY23 $
  • 101456Z AUTO 29010G17KT 9999 FEW036 05/00 A3016 RMK AO2 SLP217 T00491003 55004 CHINO RWY23 $

TAF TAF ETAD
Valido dal 10 a 13 ore il 11 a 19 ore UTC


101300Z 1013/1119 29009KT 9999 SCT025 BKN045 620254 QNH3014INS
TEMPO 1013/1016 28010G18KT BKN025
BECMG 1015/1016 28009KT 9999 SCT020 QNH3017INS
BECMG 1101/1102 30006KT 8000 BR BKN015 620404 QNH3021INS
BECMG 1109/1110 29006KT 9999 NSW BKN020 620208 QNH3024INS
BECMG 1112/1113 31009KT 9999 SCT023 620259 QNH3020INS TX07/1112Z TN01/1102Z
Nessun NOTAM noto per questo aeroporto.
1 SIGMET conosciuto per la FIR Langen (EDGG) :
 
Turbolenza severa
EDGG SIGMET 2 VALID 101704/102000 EDZF
EDGG LANGEN FIR SEV TURB FCST APRX 40NM WID LINE BTN N5103 E00555 - N4755 E00906 FL180/240 MOV E NC=



MetMap, La meteo Aeronautica in un colpo d'occhio ! - Copyright ORBIFLY Dicembre 2007 - Disclaimer

ORBIFLY MET'MAP TEAM :

Programmazione e sviluppo : Alexandra Zaïnal
Concezione e sviluppo : Baudouin d'Aumeries
Co-Programmazione e sviluppo : Marc-Olivier Méhu
Supporto tecnico e logistico : Manuel Goepfert
Aiuto per la traduzione : Arnaldo La Scala

Contatto : metmap@orbifly.com




FONTI E CREDITI :

   NOAA